createdAt,value
2023-05-14T00:02:03.907Z,15.62
2023-05-14T00:04:31.649Z,15.79
2023-05-14T00:06:59.134Z,15.82
2023-05-14T00:09:26.485Z,15.70
2023-05-14T00:11:54.185Z,15.58
2023-05-14T00:14:22.054Z,15.50
2023-05-14T00:16:49.789Z,15.51
2023-05-14T00:19:18.106Z,15.58
2023-05-14T00:21:45.585Z,15.46
2023-05-14T00:24:12.991Z,15.44
2023-05-14T00:26:40.700Z,15.44
2023-05-14T00:29:08.129Z,15.13
2023-05-14T00:31:35.728Z,15.23
2023-05-14T00:34:03.578Z,15.34
2023-05-14T00:36:31.418Z,15.24
2023-05-14T00:38:58.857Z,14.94
2023-05-14T00:41:26.526Z,15.11
2023-05-14T00:43:53.886Z,15.10
2023-05-14T00:46:21.641Z,15.11
2023-05-14T00:48:49.663Z,15.02
2023-05-14T00:51:19.082Z,14.75
2023-05-14T00:53:47.115Z,14.87
2023-05-14T00:56:15.909Z,14.82
2023-05-14T00:58:43.460Z,14.82
2023-05-14T01:01:12.265Z,14.43
2023-05-14T01:03:40.144Z,14.80
2023-05-14T01:06:13.543Z,14.84
2023-05-14T01:08:50.002Z,14.85
2023-05-14T01:11:26.251Z,14.82
2023-05-14T01:13:59.069Z,14.86
2023-05-14T01:16:28.172Z,14.85
2023-05-14T01:18:56.853Z,14.84
2023-05-14T01:21:37.439Z,14.83
2023-05-14T01:24:05.384Z,14.88
2023-05-14T01:26:33.237Z,14.70
2023-05-14T01:29:23.460Z,14.77
2023-05-14T01:31:54.590Z,14.80
2023-05-14T01:34:24.429Z,14.81
2023-05-14T01:36:53.559Z,14.73
2023-05-14T01:39:21.549Z,14.75
2023-05-14T01:41:49.092Z,14.89
2023-05-14T01:44:17.619Z,14.56
2023-05-14T01:46:45.011Z,14.66
2023-05-14T01:49:12.571Z,14.74
2023-05-14T01:51:40.373Z,14.78
2023-05-14T01:54:08.033Z,14.94
2023-05-14T01:56:35.454Z,14.84
2023-05-14T01:59:03.333Z,14.94
2023-05-14T02:01:30.866Z,14.83
2023-05-14T02:03:58.696Z,14.86
2023-05-14T02:06:26.196Z,14.78
2023-05-14T02:08:56.050Z,14.76
2023-05-14T02:11:23.872Z,14.95
2023-05-14T02:13:51.612Z,14.68
2023-05-14T02:16:19.318Z,14.67
2023-05-14T02:18:46.884Z,14.80
2023-05-14T02:21:14.658Z,14.97
2023-05-14T02:23:42.976Z,14.82
2023-05-14T02:26:11.169Z,14.94
2023-05-14T02:28:38.805Z,14.81
2023-05-14T02:31:06.308Z,15.03
2023-05-14T02:33:34.081Z,15.02
2023-05-14T02:36:01.894Z,15.02
2023-05-14T02:38:29.412Z,15.07
2023-05-14T02:40:57.091Z,15.10
2023-05-14T02:43:24.852Z,15.10
2023-05-14T02:45:52.690Z,14.99
2023-05-14T02:48:20.304Z,15.02
2023-05-14T02:50:49.869Z,14.80
2023-05-14T02:53:17.443Z,14.69
2023-05-14T02:55:44.830Z,14.99
2023-05-14T02:58:12.552Z,14.93
2023-05-14T03:00:40.243Z,15.06
2023-05-14T03:03:08.235Z,15.23
2023-05-14T03:05:36.593Z,15.17
2023-05-14T03:08:04.078Z,15.16
2023-05-14T03:10:32.904Z,14.98
2023-05-14T03:13:00.700Z,14.96
2023-05-14T03:15:28.365Z,15.08
2023-05-14T03:17:56.083Z,15.06
2023-05-14T03:20:27.157Z,15.07
2023-05-14T03:22:56.071Z,15.11
2023-05-14T03:25:23.826Z,15.18
2023-05-14T03:27:52.075Z,15.01
2023-05-14T03:30:19.449Z,15.33
2023-05-14T03:32:47.155Z,15.20
2023-05-14T03:35:14.872Z,15.30
2023-05-14T03:37:42.317Z,14.98
2023-05-14T03:40:10.469Z,15.09
2023-05-14T03:42:37.853Z,15.00
2023-05-14T03:45:06.086Z,15.05
2023-05-14T03:47:33.880Z,14.99
2023-05-14T03:50:01.491Z,15.04
2023-05-14T03:52:28.903Z,14.84
2023-05-14T03:54:56.718Z,14.87
2023-05-14T03:57:24.150Z,14.88
2023-05-14T03:59:51.532Z,14.76
2023-05-14T04:02:20.141Z,14.84
2023-05-14T04:04:48.027Z,14.73
2023-05-14T04:07:18.475Z,14.77
2023-05-14T04:09:45.880Z,14.83
2023-05-14T04:12:13.547Z,14.83
2023-05-14T04:14:41.544Z,14.78
2023-05-14T04:17:08.920Z,14.79
2023-05-14T04:19:36.643Z,14.88
2023-05-14T04:22:04.261Z,14.59
2023-05-14T04:24:31.675Z,14.63
2023-05-14T04:26:59.739Z,14.93
2023-05-14T04:29:27.328Z,14.94
2023-05-14T04:31:54.770Z,14.71
2023-05-14T04:34:22.561Z,14.76
2023-05-14T04:36:49.985Z,14.69
2023-05-14T04:39:18.886Z,14.71
2023-05-14T04:41:46.561Z,14.80
2023-05-14T04:44:14.025Z,14.71
2023-05-14T04:46:41.486Z,14.60
2023-05-14T04:49:09.312Z,14.68
2023-05-14T04:51:36.676Z,14.75
2023-05-14T04:54:04.193Z,14.72
2023-05-14T04:56:31.934Z,14.72
2023-05-14T04:58:59.330Z,14.81
2023-05-14T05:01:26.797Z,14.70
2023-05-14T05:03:55.400Z,14.81
2023-05-14T05:06:23.217Z,14.83
2023-05-14T05:08:50.611Z,14.95
2023-05-14T05:11:18.347Z,14.88
2023-05-14T05:13:46.100Z,14.88
2023-05-14T05:16:13.542Z,14.96
2023-05-14T05:18:41.322Z,15.03
2023-05-14T05:21:08.737Z,15.12
2023-05-14T05:23:36.124Z,15.09
2023-05-14T05:26:03.938Z,15.12
2023-05-14T05:28:31.342Z,15.35
2023-05-14T05:30:58.898Z,15.20
2023-05-14T05:33:26.659Z,14.99
2023-05-14T05:35:54.064Z,15.00
2023-05-14T05:38:21.556Z,14.92
2023-05-14T05:40:49.240Z,15.00
2023-05-14T05:43:16.803Z,15.23
2023-05-14T05:45:45.832Z,14.93
2023-05-14T05:48:13.618Z,15.05
2023-05-14T05:50:41.088Z,15.14
2023-05-14T05:53:08.459Z,15.15
2023-05-14T05:55:36.156Z,15.27
2023-05-14T05:58:03.615Z,15.25
2023-05-14T06:00:31.493Z,14.96
2023-05-14T06:02:59.267Z,14.81
2023-05-14T06:05:26.804Z,15.13
2023-05-14T06:07:54.415Z,15.34
2023-05-14T06:10:22.348Z,15.15
2023-05-14T06:12:49.931Z,15.34
2023-05-14T06:15:17.309Z,15.18
2023-05-14T06:17:44.989Z,15.12
2023-05-14T06:20:12.766Z,15.29
2023-05-14T06:22:40.241Z,15.45
2023-05-14T06:25:08.317Z,15.34
2023-05-14T06:27:35.758Z,15.34
2023-05-14T06:30:03.654Z,15.50
2023-05-14T06:32:31.499Z,15.47
2023-05-14T06:34:59.136Z,15.50
2023-05-14T06:37:26.494Z,15.55
2023-05-14T06:39:55.731Z,15.39
2023-05-14T06:42:24.466Z,15.53
2023-05-14T06:44:52.013Z,15.54
2023-05-14T06:47:19.735Z,15.54
2023-05-14T06:49:47.149Z,15.61
2023-05-14T06:52:14.837Z,15.59
2023-05-14T06:54:42.493Z,15.42
2023-05-14T06:57:09.869Z,15.63
2023-05-14T06:59:38.006Z,15.63
2023-05-14T07:02:05.962Z,15.73
2023-05-14T07:04:33.573Z,15.59
2023-05-14T07:07:01.091Z,15.74
2023-05-14T07:09:28.910Z,15.52
2023-05-14T07:11:56.256Z,15.57
2023-05-14T07:14:23.655Z,15.48
2023-05-14T07:16:51.347Z,15.43
2023-05-14T07:19:18.898Z,15.64
2023-05-14T07:21:46.309Z,15.34
2023-05-14T07:24:14.011Z,15.47
2023-05-14T07:26:41.466Z,15.43
2023-05-14T07:29:09.319Z,15.59
2023-05-14T07:31:36.981Z,15.82
2023-05-14T07:34:04.341Z,15.85
2023-05-14T07:36:32.026Z,15.75
2023-05-14T07:38:59.709Z,15.86
2023-05-14T07:41:27.352Z,15.94
2023-05-14T07:43:54.767Z,15.98
2023-05-14T07:46:23.900Z,16.09
2023-05-14T07:48:51.506Z,16.18
2023-05-14T07:51:18.914Z,16.18
2023-05-14T07:53:46.607Z,16.32
2023-05-14T07:56:13.972Z,16.43
2023-05-14T07:58:41.412Z,16.22
2023-05-14T08:01:09.190Z,16.40
2023-05-14T08:03:37.069Z,16.54
2023-05-14T08:06:04.660Z,16.53
2023-05-14T08:08:32.417Z,16.78
2023-05-14T08:11:00.640Z,16.67
2023-05-14T08:13:28.108Z,16.39
2023-05-14T08:15:56.044Z,16.50
2023-05-14T08:18:23.701Z,16.59
2023-05-14T08:20:51.760Z,16.73
2023-05-14T08:23:19.155Z,16.76
2023-05-14T08:25:46.820Z,16.67
2023-05-14T08:28:14.238Z,16.43
2023-05-14T08:30:41.686Z,16.31
2023-05-14T08:33:09.492Z,16.15
2023-05-14T08:35:36.958Z,16.20
2023-05-14T08:38:04.312Z,16.18
2023-05-14T08:40:32.187Z,16.39
2023-05-14T08:43:00.793Z,16.55
2023-05-14T08:45:33.837Z,16.69
2023-05-14T08:48:02.641Z,17.23
2023-05-14T08:50:31.052Z,17.44
2023-05-14T08:52:58.924Z,17.52
2023-05-14T08:55:26.794Z,17.62
2023-05-14T08:57:54.146Z,17.77
2023-05-14T09:00:22.555Z,17.82
2023-05-14T09:02:50.975Z,17.93
2023-05-14T09:05:19.540Z,17.80
2023-05-14T09:07:46.977Z,17.82
2023-05-14T09:10:15.691Z,18.14
2023-05-14T09:12:43.179Z,18.20
2023-05-14T09:15:10.961Z,18.09
2023-05-14T09:17:38.685Z,17.95
2023-05-14T09:20:07.001Z,17.84
2023-05-14T09:22:34.835Z,17.67
2023-05-14T09:25:06.926Z,17.55
2023-05-14T09:27:35.559Z,17.44
2023-05-14T09:30:11.038Z,17.41
2023-05-14T09:32:45.795Z,17.29
2023-05-14T09:35:25.048Z,17.21
2023-05-14T09:37:54.401Z,17.20
2023-05-14T09:40:24.126Z,16.99
2023-05-14T09:42:52.171Z,16.85
2023-05-14T09:45:19.623Z,16.83
2023-05-14T09:47:47.527Z,16.71
2023-05-14T09:50:15.159Z,16.80
2023-05-14T09:52:42.511Z,17.03
2023-05-14T09:55:10.190Z,16.92
2023-05-14T09:57:37.744Z,17.11
2023-05-14T10:00:06.791Z,17.18
2023-05-14T10:02:38.169Z,16.99
2023-05-14T10:05:07.435Z,17.00
2023-05-14T10:07:43.214Z,16.94
2023-05-14T10:10:14.992Z,17.02
2023-05-14T10:12:44.931Z,16.90
2023-05-14T10:15:19.132Z,16.95
2023-05-14T10:17:50.123Z,17.00
2023-05-14T10:20:18.083Z,16.97
2023-05-14T10:22:46.312Z,16.97
2023-05-14T10:25:13.965Z,16.97
2023-05-14T10:27:42.361Z,17.06
2023-05-14T10:30:13.172Z,17.05
2023-05-14T10:32:41.931Z,17.04
2023-05-14T10:35:22.164Z,17.25
2023-05-14T10:37:51.469Z,17.17
2023-05-14T10:40:19.490Z,16.86
2023-05-14T10:42:47.259Z,16.99
2023-05-14T10:45:15.357Z,16.91
2023-05-14T10:47:44.581Z,16.87
2023-05-14T10:50:14.128Z,16.95
2023-05-14T10:52:45.545Z,16.90
2023-05-14T10:55:15.098Z,17.00
2023-05-14T10:57:44.791Z,16.77
2023-05-14T11:00:14.151Z,16.56
2023-05-14T11:02:43.799Z,16.66
2023-05-14T11:05:16.858Z,16.69
2023-05-14T11:07:46.491Z,16.91
2023-05-14T11:10:15.685Z,16.75
2023-05-14T11:12:45.114Z,16.64
2023-05-14T11:15:14.916Z,16.82
2023-05-14T11:17:43.720Z,16.82
2023-05-14T11:20:11.701Z,16.61
2023-05-14T11:22:40.736Z,16.63
2023-05-14T11:25:08.815Z,16.63
2023-05-14T11:27:38.627Z,16.64
2023-05-14T11:30:21.547Z,16.54
2023-05-14T11:32:50.358Z,16.66
2023-05-14T11:35:18.443Z,16.68
2023-05-14T11:37:52.524Z,16.95
2023-05-14T11:40:20.295Z,16.92
2023-05-14T11:42:51.194Z,16.92
2023-05-14T11:45:29.975Z,16.94
2023-05-14T11:47:57.862Z,16.84
2023-05-14T11:50:25.499Z,16.86
2023-05-14T11:52:57.063Z,17.00
2023-05-14T11:55:24.769Z,16.99
2023-05-14T11:57:52.222Z,17.13
2023-05-14T12:00:22.058Z,17.02
2023-05-14T12:02:50.395Z,17.07
2023-05-14T12:05:18.986Z,16.85
2023-05-14T12:07:47.361Z,16.93
2023-05-14T12:10:15.050Z,17.03
2023-05-14T12:12:45.607Z,17.05
2023-05-14T12:15:14.086Z,17.14
2023-05-14T12:17:42.097Z,17.08
2023-05-14T12:20:11.045Z,17.15
2023-05-14T12:22:38.773Z,17.09
2023-05-14T12:25:12.325Z,17.07
2023-05-14T12:27:39.980Z,16.92
2023-05-14T12:32:42.271Z,16.72
2023-05-14T12:35:10.132Z,16.75
2023-05-14T12:37:39.854Z,16.79
2023-05-14T12:40:10.595Z,16.89
2023-05-14T12:42:38.289Z,16.82
2023-05-14T12:45:08.075Z,16.59
2023-05-14T12:47:36.832Z,16.65
2023-05-14T12:50:05.837Z,16.51
2023-05-14T12:52:38.494Z,16.58
2023-05-14T12:55:09.305Z,16.53
2023-05-14T12:57:39.071Z,16.41
2023-05-14T13:00:12.967Z,16.55
2023-05-14T13:02:42.395Z,16.08
2023-05-14T13:05:11.876Z,16.19
2023-05-14T13:07:39.556Z,16.32
2023-05-14T13:10:07.360Z,16.30
2023-05-14T13:12:35.199Z,16.25
2023-05-14T13:15:02.595Z,16.32
2023-05-14T13:17:32.252Z,16.30
2023-05-14T13:19:59.948Z,16.32
2023-05-14T13:22:27.416Z,16.31
2023-05-14T13:24:54.774Z,16.32
2023-05-14T13:27:22.476Z,16.15
2023-05-14T13:29:50.034Z,16.26
2023-05-14T13:32:17.536Z,16.35
2023-05-14T13:34:45.291Z,16.33
2023-05-14T13:37:12.730Z,16.21
2023-05-14T13:39:41.155Z,16.19
2023-05-14T13:42:09.066Z,16.11
2023-05-14T13:44:36.737Z,16.07
2023-05-14T13:47:04.441Z,16.25
2023-05-14T13:49:32.184Z,16.30
2023-05-14T13:51:59.708Z,16.39
2023-05-14T13:54:27.084Z,16.23
2023-05-14T13:56:54.794Z,16.30
2023-05-14T13:59:22.276Z,16.15
2023-05-14T14:01:50.628Z,16.19
2023-05-14T14:04:19.893Z,15.95
2023-05-14T14:06:47.334Z,16.04
2023-05-14T14:09:14.759Z,16.05
2023-05-14T14:11:42.431Z,15.84
2023-05-14T14:14:09.870Z,16.08
2023-05-14T14:16:37.316Z,16.25
2023-05-14T14:19:05.337Z,16.15
2023-05-14T14:21:33.018Z,16.04
2023-05-14T14:24:00.455Z,16.06
2023-05-14T14:26:29.225Z,15.99
2023-05-14T14:28:56.646Z,15.95
2023-05-14T14:31:24.220Z,16.07
2023-05-14T14:33:52.193Z,16.00
2023-05-14T14:36:19.628Z,15.81
2023-05-14T14:38:46.993Z,15.76
2023-05-14T14:41:14.612Z,15.80
2023-05-14T14:43:43.377Z,15.78
2023-05-14T14:46:11.056Z,15.74
2023-05-14T14:48:39.007Z,15.89
2023-05-14T14:51:07.432Z,15.78
2023-05-14T14:53:36.039Z,15.93
2023-05-14T14:56:04.458Z,15.83
2023-05-14T14:58:32.117Z,15.39
2023-05-14T15:01:01.065Z,15.58
2023-05-14T15:03:29.298Z,15.67
2023-05-14T15:05:56.891Z,15.51
2023-05-14T15:08:28.238Z,15.43
2023-05-14T15:10:56.289Z,15.51
2023-05-14T15:13:24.657Z,15.58
2023-05-14T15:15:52.757Z,15.37
2023-05-14T15:18:20.615Z,15.44
2023-05-14T15:20:48.285Z,15.41
2023-05-14T15:23:15.838Z,15.26
2023-05-14T15:25:43.565Z,15.33
2023-05-14T15:28:11.193Z,15.22
2023-05-14T15:30:38.884Z,15.24
2023-05-14T15:33:08.299Z,15.29
2023-05-14T15:35:36.509Z,15.14
2023-05-14T15:38:03.896Z,15.21
2023-05-14T15:40:33.134Z,15.45
2023-05-14T15:43:00.778Z,15.32
2023-05-14T15:45:28.375Z,15.36
2023-05-14T15:47:56.157Z,15.09
2023-05-14T15:50:23.873Z,15.01
2023-05-14T15:52:51.433Z,15.16
2023-05-14T15:55:19.228Z,15.22
2023-05-14T15:57:46.669Z,15.26
2023-05-14T16:00:14.704Z,15.28
2023-05-14T16:02:42.464Z,14.95
2023-05-14T16:05:09.909Z,15.20
2023-05-14T16:07:37.538Z,15.20
2023-05-14T16:10:06.113Z,15.19
2023-05-14T16:12:33.746Z,15.12
2023-05-14T16:15:01.258Z,15.07
2023-05-14T16:17:30.454Z,15.32
2023-05-14T16:19:59.967Z,15.13
2023-05-14T16:22:29.266Z,15.13
2023-05-14T16:24:56.932Z,15.05
2023-05-14T16:27:24.512Z,15.12
2023-05-14T16:29:52.015Z,15.26
2023-05-14T16:32:20.176Z,15.10
2023-05-14T16:34:49.893Z,15.00
2023-05-14T16:37:17.825Z,15.15
2023-05-14T16:39:45.985Z,15.58
2023-05-14T16:42:13.526Z,15.57
2023-05-14T16:44:40.933Z,15.58
2023-05-14T16:47:08.630Z,15.43
2023-05-14T16:49:36.042Z,15.46
2023-05-14T16:52:03.951Z,15.27
2023-05-14T16:54:31.591Z,15.20
2023-05-14T16:56:58.937Z,15.36
2023-05-14T16:59:26.312Z,15.39
2023-05-14T17:01:54.149Z,15.23
2023-05-14T17:04:21.682Z,15.26
2023-05-14T17:06:49.269Z,15.32
2023-05-14T17:09:17.703Z,15.33
2023-05-14T17:11:45.115Z,15.47
2023-05-14T17:14:12.487Z,15.29
2023-05-14T17:16:42.284Z,15.33
2023-05-14T17:19:10.097Z,15.43
2023-05-14T17:21:37.604Z,15.56
2023-05-14T17:24:05.598Z,15.46
2023-05-14T17:26:33.101Z,15.58
2023-05-14T17:29:00.712Z,15.58
2023-05-14T17:31:28.404Z,15.48
2023-05-14T17:33:55.842Z,15.50
2023-05-14T17:36:23.307Z,15.58
2023-05-14T17:38:51.008Z,15.44
2023-05-14T17:41:18.408Z,15.44
2023-05-14T17:43:45.851Z,15.62
2023-05-14T17:46:13.538Z,15.51
2023-05-14T17:48:40.985Z,15.59
2023-05-14T17:51:08.385Z,15.67
2023-05-14T17:53:36.104Z,15.62
2023-05-14T17:56:03.702Z,15.46
2023-05-14T17:58:31.165Z,15.41
2023-05-14T18:00:58.857Z,15.24
2023-05-14T18:03:26.919Z,15.09
2023-05-14T18:05:54.504Z,14.89
2023-05-14T18:08:22.116Z,14.98
2023-05-14T18:10:49.885Z,14.95
2023-05-14T18:13:17.252Z,15.33
2023-05-14T18:15:44.947Z,15.36
2023-05-14T18:18:12.969Z,15.17
2023-05-14T18:20:40.444Z,15.08
2023-05-14T18:23:08.101Z,14.99
2023-05-14T18:25:35.882Z,15.15
2023-05-14T18:28:03.393Z,15.21
2023-05-14T18:30:30.858Z,15.19
2023-05-14T18:32:59.755Z,15.05
2023-05-14T18:35:27.890Z,15.20
2023-05-14T18:37:55.667Z,15.04
2023-05-14T18:40:23.417Z,15.22
2023-05-14T18:42:50.934Z,15.35
2023-05-14T18:45:18.657Z,15.39
2023-05-14T18:47:46.642Z,15.30
2023-05-14T18:50:14.054Z,15.17
2023-05-14T18:52:41.645Z,15.27
2023-05-14T18:55:09.502Z,15.08
2023-05-14T18:57:37.210Z,15.26
2023-05-14T19:00:05.134Z,15.16
2023-05-14T19:02:33.608Z,15.50
2023-05-14T19:05:01.064Z,15.61
2023-05-14T19:07:30.339Z,15.66
2023-05-14T19:09:58.015Z,15.80
2023-05-14T19:12:26.545Z,15.69
2023-05-14T19:14:54.005Z,15.64
2023-05-14T19:17:21.854Z,15.74
2023-05-14T19:19:49.341Z,15.78
2023-05-14T19:22:17.017Z,15.76
2023-05-14T19:24:44.669Z,15.69
2023-05-14T19:27:16.080Z,15.71
2023-05-14T19:29:44.026Z,15.87
2023-05-14T19:32:11.649Z,16.00
2023-05-14T19:34:39.113Z,16.06
2023-05-14T19:37:06.688Z,15.95
2023-05-14T19:39:34.375Z,16.06
2023-05-14T19:42:01.787Z,15.98
2023-05-14T19:44:29.392Z,15.82
2023-05-14T19:46:57.145Z,15.84
2023-05-14T19:49:24.558Z,15.91
2023-05-14T19:51:51.968Z,16.07
2023-05-14T19:54:19.659Z,15.96
2023-05-14T19:56:47.127Z,16.01
2023-05-14T19:59:14.542Z,15.96
2023-05-14T20:01:42.319Z,15.88
2023-05-14T20:04:10.591Z,15.97
2023-05-14T20:06:38.287Z,15.99
2023-05-14T20:09:05.887Z,15.82
2023-05-14T20:11:33.565Z,15.95
2023-05-14T20:14:00.909Z,15.69
2023-05-14T20:16:28.601Z,15.86
2023-05-14T20:18:56.536Z,15.87
2023-05-14T20:21:24.054Z,16.06
2023-05-14T20:23:51.488Z,16.10
2023-05-14T20:26:19.215Z,16.02
2023-05-14T20:28:46.604Z,15.95
2023-05-14T20:31:14.052Z,16.03
2023-05-14T20:33:41.885Z,16.20
2023-05-14T20:36:09.279Z,15.97
2023-05-14T20:38:37.198Z,16.17
2023-05-14T20:41:04.909Z,16.10
2023-05-14T20:43:32.544Z,15.92
2023-05-14T20:46:00.641Z,15.77
2023-05-14T20:48:28.427Z,15.75
2023-05-14T20:50:55.786Z,16.00
2023-05-14T20:53:23.350Z,15.90
2023-05-14T20:55:51.057Z,15.85
2023-05-14T20:58:18.386Z,15.94
2023-05-14T21:00:45.895Z,15.97
2023-05-14T21:03:13.691Z,15.87
2023-05-14T21:05:43.618Z,15.93
2023-05-14T21:08:11.334Z,15.79
2023-05-14T21:10:38.969Z,15.89
2023-05-14T21:13:07.133Z,15.77
2023-05-14T21:15:34.541Z,15.72
2023-05-14T21:18:02.285Z,15.78
2023-05-14T21:20:29.837Z,15.73
2023-05-14T21:22:57.229Z,15.86
2023-05-14T21:25:25.262Z,15.75
2023-05-14T21:27:52.970Z,15.81
2023-05-14T21:30:20.410Z,15.73
2023-05-14T21:32:48.142Z,15.74
2023-05-14T21:35:15.636Z,15.76
2023-05-14T21:37:43.311Z,15.68
2023-05-14T21:40:14.815Z,15.57
2023-05-14T21:42:42.508Z,15.48
2023-05-14T21:45:10.523Z,15.63
2023-05-14T21:47:38.517Z,15.26
2023-05-14T21:50:06.847Z,15.45
2023-05-14T21:52:34.327Z,15.46
2023-05-14T21:55:01.996Z,15.54
2023-05-14T21:57:31.786Z,15.51
2023-05-14T22:00:03.513Z,15.60
2023-05-14T22:02:32.779Z,15.78
2023-05-14T22:05:00.692Z,15.77
2023-05-14T22:07:28.605Z,15.96
2023-05-14T22:09:56.238Z,15.98
2023-05-14T22:12:23.927Z,15.79
2023-05-14T22:14:51.350Z,15.85
2023-05-14T22:17:18.719Z,15.95
2023-05-14T22:19:46.370Z,15.97
2023-05-14T22:22:13.797Z,15.89
2023-05-14T22:24:41.261Z,16.07
2023-05-14T22:27:09.030Z,16.04
2023-05-14T22:29:38.166Z,16.21
2023-05-14T22:32:08.163Z,16.32
2023-05-14T22:34:36.792Z,16.42
2023-05-14T22:37:04.307Z,16.35
2023-05-14T22:39:31.807Z,16.47
2023-05-14T22:41:59.557Z,16.53
2023-05-14T22:44:29.105Z,16.56
2023-05-14T22:46:57.502Z,16.51
2023-05-14T22:49:25.546Z,16.55
2023-05-14T22:51:55.582Z,16.53
2023-05-14T22:54:22.958Z,16.59
2023-05-14T22:56:51.387Z,16.55
2023-05-14T22:59:19.025Z,16.55
2023-05-14T23:01:47.246Z,16.59
2023-05-14T23:04:15.021Z,16.65
2023-05-14T23:06:42.502Z,16.62
2023-05-14T23:09:09.909Z,16.62
2023-05-14T23:11:37.616Z,16.64
2023-05-14T23:14:05.001Z,16.81
2023-05-14T23:16:32.428Z,16.73
2023-05-14T23:19:00.315Z,16.80
2023-05-14T23:21:27.897Z,16.67
2023-05-14T23:23:55.326Z,16.53
2023-05-14T23:26:22.954Z,16.46
2023-05-14T23:28:51.111Z,16.57
2023-05-14T23:31:18.608Z,16.31
2023-05-14T23:33:46.715Z,16.44
2023-05-14T23:36:14.166Z,16.41
2023-05-14T23:38:41.682Z,16.47
2023-05-14T23:41:09.438Z,16.43
2023-05-14T23:43:36.851Z,16.48
2023-05-14T23:46:04.434Z,16.42
2023-05-14T23:48:32.151Z,16.64
2023-05-14T23:50:59.572Z,16.49
2023-05-14T23:53:26.969Z,16.64
2023-05-14T23:55:54.790Z,16.44
2023-05-14T23:58:22.251Z,16.53
